Maasbree, Netherlands
Current Conditions -  °F | °C
As of 11:50 PM on Wednesday 17 Dec 2014 (Local Time) from EDLV Reporting Station
Scattered Clouds Scattered Clouds  
Wind Chill: 52°   Ceiling: Unl
Heat Index: 52°   Visibility: 4mi
Dew Point: 52°   Wind: 8mph
Humidity: 100%   Direction: 230°SW
Pressure: 29.8"   Gusts: NA
Location:  51.36°N, 6.05°E
Report Text: EDLV 172250Z 23007KT 6000 SCT006 11/11 Q1009
Loading
Personal Weather Stations






























Interactive Weather Map New forecast layout! Learn more

10-Day Weather Forecast

Advertisements
Track Severe Weather on mobile